Edenville, MI (48620)

5:01 AM EDT on August 31, 2014 (GMT -0400)
East shore of Sanford lake. | Change Station
CLOSE
Current Station
Personal Weather Station
Location: Sanford, MI
Elevation: 639 ft
Nearby Weather Stations

Elev 639 ft 43.70 °N, 84.38 °W | Updated 1 second ago

Mostly Cloudy
Mostly Cloudy
67.6 °F
Feels Like 67.6 °F
N
0.0
Wind Variable Wind from WSW
Gusts 0.0 mph

Today
High -- | Low -- °F
--% Chance of Precip.
Yesterday
High -- | Low -- °F
Precip. -- in
6:59 AM 8:14 PM
Waxing Crescent, 29% visible
Pressure 29.89 in
Visibility 10.0 miles
Clouds Overcast 1400 ft
Dew Point 64 °F
Humidity 87%
Rainfall 0.00 in
Snow Depth Not available.
UV 0 out of 12
Pollen 2.30 out of 12
Ozone Good
PM2.5 Good
Flu Activity Not available.
METAR KIKW 310855Z AUTO 21003KT 10SM OVC014 20/19 A2989 RMK AO2

More Conditions Fewer Conditions

Pressure 29.89 in
Visibility 10.0 miles
Clouds Overcast 1400 ft
Dew Point 64 °F
Humidity 87%
Rainfall 0.00 in
Snow Depth Not available.
UV 0 out of 12
Pollen 2.30 out of 12
Ozone Good
PM2.5 Good
Flu Activity Not available.
METAR KIKW 310855Z AUTO 21003KT 10SM OVC014 20/19 A2989 RMK AO2

More Conditions Fewer Conditions

10-Day Weather Forecast

Almanac

Astronomy

Aug. 31, 2014 Rise Set
Actual Time 6:59 AM EDT 8:14 PM EDT
Civil Twilight 6:30 AM EDT 8:44 PM EDT
Nautical Twilight 5:54 AM EDT 9:20 PM EDT
Astronomical Twilight 5:16 AM EDT 9:57 PM EDT
Moon 12:57 PM EDT 11:16 PM EDT
Length of Visible Light 14h 14m
Length of Day
13h 15m
Tomorrow will be 2m 53s shorter.
Waxing Crescent, 29% of the Moon is Illuminated
Today
Waxing Crescent
Sep 2
First Quarter
Sep 8
Full
Sep 15
Last Quarter
Sep 24
New

Today's Extremes

State Highs State Lows

Community

WunderPhotos

Upload Photos

1,748,834 photos uploaded!

Nearby

Air Quality

  Air Quality AQ Index Pollutant
Yesterday Moderate
PM2.5
Yesterday Good
OZONE
Current Good
PM2.5
Current Good
OZONE
Sunday Good
OZONE
Sunday Good
PM2.5
Monday Good
OZONE
Monday Good
PM2.5
Tuesday Good
OZONE
Tuesday Good
PM2.5

Snow Depth

Station Depth Elevation
No new snow has been reported.

Earthquake Activity

City Distance Mag. Time & Date
No recent earthquake activity has been reported nearby.
Minimum magnitude displayed is 2.5.

Coastal Water Temperatures

Place Temperature
Harbor Beach, MI 69.1 °F

Nearby Weather Stations